sensor_id;sensor_type;location;lat;lon;timestamp;P1;durP1;ratioP1;P2;durP2;ratioP2
21215;SDS011;10765;50.954;5.322;2022-12-08T00:01:27;17.07;;;15.27;;
21215;SDS011;10765;50.954;5.322;2022-12-08T00:03:56;18.80;;;15.63;;
21215;SDS011;10765;50.954;5.322;2022-12-08T00:06:24;15.60;;;14.00;;
21215;SDS011;10765;50.954;5.322;2022-12-08T00:09:14;16.07;;;13.77;;
21215;SDS011;10765;50.954;5.322;2022-12-08T00:11:53;17.50;;;14.53;;
21215;SDS011;10765;50.954;5.322;2022-12-08T00:14:22;15.80;;;14.23;;
21215;SDS011;10765;50.954;5.322;2022-12-08T00:16:52;15.67;;;14.07;;
21215;SDS011;10765;50.954;5.322;2022-12-08T00:19:19;14.90;;;13.23;;
21215;SDS011;10765;50.954;5.322;2022-12-08T00:21:46;15.43;;;13.83;;
21215;SDS011;10765;50.954;5.322;2022-12-08T00:24:13;15.13;;;12.63;;
21215;SDS011;10765;50.954;5.322;2022-12-08T00:26:40;13.10;;;11.80;;
21215;SDS011;10765;50.954;5.322;2022-12-08T00:29:08;16.17;;;13.63;;
21215;SDS011;10765;50.954;5.322;2022-12-08T00:31:35;14.60;;;13.07;;
21215;SDS011;10765;50.954;5.322;2022-12-08T00:34:03;13.57;;;12.17;;
21215;SDS011;10765;50.954;5.322;2022-12-08T00:36:31;14.03;;;12.40;;
21215;SDS011;10765;50.954;5.322;2022-12-08T00:38:58;12.60;;;11.30;;
21215;SDS011;10765;50.954;5.322;2022-12-08T00:41:26;12.40;;;11.20;;
21215;SDS011;10765;50.954;5.322;2022-12-08T00:44:11;11.37;;;10.27;;
21215;SDS011;10765;50.954;5.322;2022-12-08T00:46:39;11.90;;;10.53;;
21215;SDS011;10765;50.954;5.322;2022-12-08T00:49:08;10.30;;;9.03;;
21215;SDS011;10765;50.954;5.322;2022-12-08T00:51:35;9.77;;;8.43;;
21215;SDS011;10765;50.954;5.322;2022-12-08T00:54:02;8.60;;;7.53;;
21215;SDS011;10765;50.954;5.322;2022-12-08T00:56:29;9.10;;;8.20;;
21215;SDS011;10765;50.954;5.322;2022-12-08T00:58:56;11.00;;;8.10;;
21215;SDS011;10765;50.954;5.322;2022-12-08T01:01:23;9.40;;;8.40;;
21215;SDS011;10765;50.954;5.322;2022-12-08T01:03:51;11.63;;;8.83;;
21215;SDS011;10765;50.954;5.322;2022-12-08T01:06:19;10.33;;;9.13;;
21215;SDS011;10765;50.954;5.322;2022-12-08T01:08:46;9.93;;;8.90;;
21215;SDS011;10765;50.954;5.322;2022-12-08T01:11:14;13.67;;;10.20;;
21215;SDS011;10765;50.954;5.322;2022-12-08T01:13:42;10.90;;;9.67;;
21215;SDS011;10765;50.954;5.322;2022-12-08T01:16:18;11.23;;;9.07;;
21215;SDS011;10765;50.954;5.322;2022-12-08T01:18:46;13.10;;;10.03;;
21215;SDS011;10765;50.954;5.322;2022-12-08T01:21:14;13.30;;;10.00;;
21215;SDS011;10765;50.954;5.322;2022-12-08T01:23:42;12.63;;;10.40;;
21215;SDS011;10765;50.954;5.322;2022-12-08T01:26:10;14.10;;;11.13;;
21215;SDS011;10765;50.954;5.322;2022-12-08T01:28:38;14.23;;;11.83;;
21215;SDS011;10765;50.954;5.322;2022-12-08T01:31:08;17.80;;;12.43;;
21215;SDS011;10765;50.954;5.322;2022-12-08T01:33:37;15.43;;;12.90;;
21215;SDS011;10765;50.954;5.322;2022-12-08T01:36:04;17.20;;;13.87;;
21215;SDS011;10765;50.954;5.322;2022-12-08T01:38:32;18.23;;;15.33;;
21215;SDS011;10765;50.954;5.322;2022-12-08T01:41:00;17.60;;;14.37;;
21215;SDS011;10765;50.954;5.322;2022-12-08T01:43:42;16.70;;;14.90;;
21215;SDS011;10765;50.954;5.322;2022-12-08T01:46:21;19.73;;;16.63;;
21215;SDS011;10765;50.954;5.322;2022-12-08T01:48:48;23.07;;;17.73;;
21215;SDS011;10765;50.954;5.322;2022-12-08T01:51:16;22.00;;;18.40;;
21215;SDS011;10765;50.954;5.322;2022-12-08T01:53:43;23.60;;;19.07;;
21215;SDS011;10765;50.954;5.322;2022-12-08T01:56:12;27.80;;;19.07;;
21215;SDS011;10765;50.954;5.322;2022-12-08T01:58:45;25.50;;;19.40;;
21215;SDS011;10765;50.954;5.322;2022-12-08T02:01:14;25.67;;;20.80;;
21215;SDS011;10765;50.954;5.322;2022-12-08T02:03:42;24.57;;;21.03;;
21215;SDS011;10765;50.954;5.322;2022-12-08T02:06:13;30.43;;;22.90;;
21215;SDS011;10765;50.954;5.322;2022-12-08T02:08:41;30.83;;;24.33;;
21215;SDS011;10765;50.954;5.322;2022-12-08T02:11:10;32.50;;;23.63;;
21215;SDS011;10765;50.954;5.322;2022-12-08T02:13:39;31.03;;;24.17;;
21215;SDS011;10765;50.954;5.322;2022-12-08T02:16:09;31.87;;;24.23;;
21215;SDS011;10765;50.954;5.322;2022-12-08T02:18:52;34.43;;;24.93;;
21215;SDS011;10765;50.954;5.322;2022-12-08T02:21:28;30.43;;;24.93;;
21215;SDS011;10765;50.954;5.322;2022-12-08T02:24:03;31.57;;;25.23;;
21215;SDS011;10765;50.954;5.322;2022-12-08T02:29:51;33.33;;;25.93;;
21215;SDS011;10765;50.954;5.322;2022-12-08T02:35:38;33.30;;;26.70;;
21215;SDS011;10765;50.954;5.322;2022-12-08T02:38:16;35.23;;;25.43;;
21215;SDS011;10765;50.954;5.322;2022-12-08T02:40:48;32.07;;;25.77;;
21215;SDS011;10765;50.954;5.322;2022-12-08T02:43:26;34.67;;;27.07;;
21215;SDS011;10765;50.954;5.322;2022-12-08T02:46:00;33.93;;;25.97;;
21215;SDS011;10765;50.954;5.322;2022-12-08T02:48:33;34.57;;;27.00;;
21215;SDS011;10765;50.954;5.322;2022-12-08T02:51:01;35.57;;;26.70;;
21215;SDS011;10765;50.954;5.322;2022-12-08T02:53:29;32.90;;;26.13;;
21215;SDS011;10765;50.954;5.322;2022-12-08T02:56:00;34.97;;;25.53;;
21215;SDS011;10765;50.954;5.322;2022-12-08T03:01:35;32.63;;;26.57;;
21215;SDS011;10765;50.954;5.322;2022-12-08T03:04:15;32.00;;;25.50;;
21215;SDS011;10765;50.954;5.322;2022-12-08T03:06:54;34.50;;;27.60;;
21215;SDS011;10765;50.954;5.322;2022-12-08T03:09:29;35.70;;;27.27;;
21215;SDS011;10765;50.954;5.322;2022-12-08T03:12:03;35.20;;;26.93;;
21215;SDS011;10765;50.954;5.322;2022-12-08T03:14:37;33.63;;;26.43;;
21215;SDS011;10765;50.954;5.322;2022-12-08T03:17:10;34.37;;;26.37;;
21215;SDS011;10765;50.954;5.322;2022-12-08T03:19:39;34.50;;;26.67;;
21215;SDS011;10765;50.954;5.322;2022-12-08T03:22:10;33.53;;;26.53;;
21215;SDS011;10765;50.954;5.322;2022-12-08T03:24:39;34.53;;;26.10;;
21215;SDS011;10765;50.954;5.322;2022-12-08T03:27:10;38.40;;;28.20;;
21215;SDS011;10765;50.954;5.322;2022-12-08T03:29:39;34.90;;;26.40;;
21215;SDS011;10765;50.954;5.322;2022-12-08T03:32:07;36.97;;;26.50;;
21215;SDS011;10765;50.954;5.322;2022-12-08T03:34:39;34.03;;;25.33;;
21215;SDS011;10765;50.954;5.322;2022-12-08T03:37:10;34.80;;;26.23;;
21215;SDS011;10765;50.954;5.322;2022-12-08T03:39:37;34.07;;;26.47;;
21215;SDS011;10765;50.954;5.322;2022-12-08T03:42:04;34.57;;;27.73;;
21215;SDS011;10765;50.954;5.322;2022-12-08T03:44:31;35.07;;;26.33;;
21215;SDS011;10765;50.954;5.322;2022-12-08T03:46:58;33.57;;;26.43;;
21215;SDS011;10765;50.954;5.322;2022-12-08T03:49:25;32.57;;;25.77;;
21215;SDS011;10765;50.954;5.322;2022-12-08T03:51:52;33.30;;;25.03;;
21215;SDS011;10765;50.954;5.322;2022-12-08T03:54:20;35.93;;;26.57;;
21215;SDS011;10765;50.954;5.322;2022-12-08T03:56:48;36.23;;;26.00;;
21215;SDS011;10765;50.954;5.322;2022-12-08T03:59:15;33.73;;;26.43;;
21215;SDS011;10765;50.954;5.322;2022-12-08T04:01:42;33.93;;;25.13;;
21215;SDS011;10765;50.954;5.322;2022-12-08T04:04:09;33.83;;;24.00;;
21215;SDS011;10765;50.954;5.322;2022-12-08T04:06:35;34.73;;;25.07;;
21215;SDS011;10765;50.954;5.322;2022-12-08T04:09:02;35.77;;;26.23;;
21215;SDS011;10765;50.954;5.322;2022-12-08T04:11:31;38.77;;;27.40;;
21215;SDS011;10765;50.954;5.322;2022-12-08T04:13:58;37.17;;;26.67;;
21215;SDS011;10765;50.954;5.322;2022-12-08T04:16:24;35.57;;;25.47;;
21215;SDS011;10765;50.954;5.322;2022-12-08T04:18:52;35.57;;;25.63;;
21215;SDS011;10765;50.954;5.322;2022-12-08T04:21:20;37.03;;;27.37;;
21215;SDS011;10765;50.954;5.322;2022-12-08T04:23:47;37.60;;;26.07;;
21215;SDS011;10765;50.954;5.322;2022-12-08T04:26:15;38.77;;;27.90;;
21215;SDS011;10765;50.954;5.322;2022-12-08T04:28:43;41.07;;;27.07;;
21215;SDS011;10765;50.954;5.322;2022-12-08T04:31:10;36.90;;;25.07;;
21215;SDS011;10765;50.954;5.322;2022-12-08T04:33:37;37.90;;;27.77;;
21215;SDS011;10765;50.954;5.322;2022-12-08T04:36:05;41.73;;;28.20;;
21215;SDS011;10765;50.954;5.322;2022-12-08T04:38:32;43.17;;;28.10;;
21215;SDS011;10765;50.954;5.322;2022-12-08T04:41:00;38.27;;;27.53;;
21215;SDS011;10765;50.954;5.322;2022-12-08T04:43:27;38.67;;;27.93;;
21215;SDS011;10765;50.954;5.322;2022-12-08T04:45:55;39.40;;;28.07;;
21215;SDS011;10765;50.954;5.322;2022-12-08T04:48:22;40.13;;;27.80;;
21215;SDS011;10765;50.954;5.322;2022-12-08T04:50:49;43.07;;;27.83;;
21215;SDS011;10765;50.954;5.322;2022-12-08T04:53:15;38.63;;;27.90;;
21215;SDS011;10765;50.954;5.322;2022-12-08T04:55:43;37.87;;;27.10;;
21215;SDS011;10765;50.954;5.322;2022-12-08T04:58:12;43.47;;;28.00;;
21215;SDS011;10765;50.954;5.322;2022-12-08T05:00:41;42.07;;;27.90;;
21215;SDS011;10765;50.954;5.322;2022-12-08T05:03:10;37.90;;;28.13;;
21215;SDS011;10765;50.954;5.322;2022-12-08T05:05:37;40.97;;;28.50;;
21215;SDS011;10765;50.954;5.322;2022-12-08T05:08:04;40.83;;;27.43;;
21215;SDS011;10765;50.954;5.322;2022-12-08T05:10:31;38.90;;;27.50;;
21215;SDS011;10765;50.954;5.322;2022-12-08T05:12:58;37.93;;;27.07;;
21215;SDS011;10765;50.954;5.322;2022-12-08T05:15:26;36.07;;;26.27;;
21215;SDS011;10765;50.954;5.322;2022-12-08T05:17:53;36.10;;;26.33;;
21215;SDS011;10765;50.954;5.322;2022-12-08T05:20:21;36.17;;;25.93;;
21215;SDS011;10765;50.954;5.322;2022-12-08T05:22:48;32.93;;;25.83;;
21215;SDS011;10765;50.954;5.322;2022-12-08T05:25:15;33.30;;;25.20;;
21215;SDS011;10765;50.954;5.322;2022-12-08T05:27:42;37.57;;;26.10;;
21215;SDS011;10765;50.954;5.322;2022-12-08T05:30:09;36.40;;;26.20;;
21215;SDS011;10765;50.954;5.322;2022-12-08T05:32:36;36.13;;;25.40;;
21215;SDS011;10765;50.954;5.322;2022-12-08T05:35:04;35.30;;;26.70;;
21215;SDS011;10765;50.954;5.322;2022-12-08T05:37:33;41.37;;;27.17;;
21215;SDS011;10765;50.954;5.322;2022-12-08T05:40:00;37.00;;;26.30;;
21215;SDS011;10765;50.954;5.322;2022-12-08T05:42:26;35.63;;;25.17;;
21215;SDS011;10765;50.954;5.322;2022-12-08T05:44:53;37.37;;;26.20;;
21215;SDS011;10765;50.954;5.322;2022-12-08T05:47:20;36.43;;;26.63;;
21215;SDS011;10765;50.954;5.322;2022-12-08T05:49:47;36.43;;;25.83;;
21215;SDS011;10765;50.954;5.322;2022-12-08T05:52:14;38.07;;;26.07;;
21215;SDS011;10765;50.954;5.322;2022-12-08T05:54:43;39.70;;;27.73;;
21215;SDS011;10765;50.954;5.322;2022-12-08T05:57:10;35.07;;;25.63;;
21215;SDS011;10765;50.954;5.322;2022-12-08T05:59:37;32.47;;;25.37;;
21215;SDS011;10765;50.954;5.322;2022-12-08T06:02:04;35.17;;;25.43;;
21215;SDS011;10765;50.954;5.322;2022-12-08T06:04:32;32.83;;;24.20;;
21215;SDS011;10765;50.954;5.322;2022-12-08T06:06:59;31.27;;;24.47;;
21215;SDS011;10765;50.954;5.322;2022-12-08T06:09:26;30.17;;;23.33;;
21215;SDS011;10765;50.954;5.322;2022-12-08T06:11:54;31.50;;;23.17;;
21215;SDS011;10765;50.954;5.322;2022-12-08T06:14:21;33.67;;;23.77;;
21215;SDS011;10765;50.954;5.322;2022-12-08T06:16:48;31.23;;;23.83;;
21215;SDS011;10765;50.954;5.322;2022-12-08T06:19:15;30.97;;;22.57;;
21215;SDS011;10765;50.954;5.322;2022-12-08T06:21:42;28.83;;;23.23;;
21215;SDS011;10765;50.954;5.322;2022-12-08T06:24:09;31.33;;;23.27;;
21215;SDS011;10765;50.954;5.322;2022-12-08T06:26:36;31.73;;;22.80;;
21215;SDS011;10765;50.954;5.322;2022-12-08T06:29:06;25.80;;;21.50;;
21215;SDS011;10765;50.954;5.322;2022-12-08T06:31:33;29.60;;;21.53;;
21215;SDS011;10765;50.954;5.322;2022-12-08T06:34:00;25.80;;;21.13;;
21215;SDS011;10765;50.954;5.322;2022-12-08T06:36:27;26.87;;;21.00;;
21215;SDS011;10765;50.954;5.322;2022-12-08T06:38:55;24.77;;;19.40;;
21215;SDS011;10765;50.954;5.322;2022-12-08T06:41:22;25.67;;;20.00;;
21215;SDS011;10765;50.954;5.322;2022-12-08T06:43:49;29.57;;;20.47;;
21215;SDS011;10765;50.954;5.322;2022-12-08T06:46:18;26.40;;;20.07;;
21215;SDS011;10765;50.954;5.322;2022-12-08T06:48:45;26.57;;;18.90;;
21215;SDS011;10765;50.954;5.322;2022-12-08T06:51:15;28.33;;;20.13;;
21215;SDS011;10765;50.954;5.322;2022-12-08T06:53:43;27.50;;;19.57;;
21215;SDS011;10765;50.954;5.322;2022-12-08T06:56:11;27.03;;;19.63;;
21215;SDS011;10765;50.954;5.322;2022-12-08T06:58:39;29.67;;;20.17;;
21215;SDS011;10765;50.954;5.322;2022-12-08T07:01:07;24.63;;;19.60;;
21215;SDS011;10765;50.954;5.322;2022-12-08T07:03:37;22.10;;;19.20;;
21215;SDS011;10765;50.954;5.322;2022-12-08T07:06:04;26.23;;;20.63;;
21215;SDS011;10765;50.954;5.322;2022-12-08T07:08:32;26.50;;;20.73;;
21215;SDS011;10765;50.954;5.322;2022-12-08T07:10:59;31.23;;;21.70;;
21215;SDS011;10765;50.954;5.322;2022-12-08T07:13:32;29.03;;;22.33;;
21215;SDS011;10765;50.954;5.322;2022-12-08T07:15:58;31.27;;;23.07;;
21215;SDS011;10765;50.954;5.322;2022-12-08T07:18:25;31.50;;;23.90;;
21215;SDS011;10765;50.954;5.322;2022-12-08T07:20:53;28.80;;;23.63;;
21215;SDS011;10765;50.954;5.322;2022-12-08T07:23:20;33.23;;;23.90;;
21215;SDS011;10765;50.954;5.322;2022-12-08T07:25:47;30.57;;;23.00;;
21215;SDS011;10765;50.954;5.322;2022-12-08T07:28:14;31.27;;;22.10;;
21215;SDS011;10765;50.954;5.322;2022-12-08T07:30:41;29.33;;;21.63;;
21215;SDS011;10765;50.954;5.322;2022-12-08T07:33:08;27.87;;;21.00;;
21215;SDS011;10765;50.954;5.322;2022-12-08T07:35:35;26.70;;;20.73;;
21215;SDS011;10765;50.954;5.322;2022-12-08T07:38:03;29.40;;;21.80;;
21215;SDS011;10765;50.954;5.322;2022-12-08T07:40:30;28.83;;;21.97;;
21215;SDS011;10765;50.954;5.322;2022-12-08T07:42:57;29.30;;;21.97;;
21215;SDS011;10765;50.954;5.322;2022-12-08T07:45:24;26.90;;;20.07;;
21215;SDS011;10765;50.954;5.322;2022-12-08T07:47:50;24.97;;;19.00;;
21215;SDS011;10765;50.954;5.322;2022-12-08T07:50:17;26.07;;;19.23;;
21215;SDS011;10765;50.954;5.322;2022-12-08T07:52:44;30.20;;;19.90;;
21215;SDS011;10765;50.954;5.322;2022-12-08T07:55:12;29.03;;;19.43;;
21215;SDS011;10765;50.954;5.322;2022-12-08T07:57:39;24.57;;;19.03;;
21215;SDS011;10765;50.954;5.322;2022-12-08T08:00:07;27.70;;;20.03;;
21215;SDS011;10765;50.954;5.322;2022-12-08T08:02:35;31.67;;;21.47;;
21215;SDS011;10765;50.954;5.322;2022-12-08T08:05:02;27.50;;;19.10;;
21215;SDS011;10765;50.954;5.322;2022-12-08T08:07:30;28.27;;;20.87;;
21215;SDS011;10765;50.954;5.322;2022-12-08T08:09:57;25.13;;;21.00;;
21215;SDS011;10765;50.954;5.322;2022-12-08T08:12:25;26.77;;;19.00;;
21215;SDS011;10765;50.954;5.322;2022-12-08T08:14:52;26.07;;;19.13;;
21215;SDS011;10765;50.954;5.322;2022-12-08T08:17:19;25.70;;;18.33;;
21215;SDS011;10765;50.954;5.322;2022-12-08T08:19:46;26.37;;;19.40;;
21215;SDS011;10765;50.954;5.322;2022-12-08T08:22:12;27.03;;;18.80;;
21215;SDS011;10765;50.954;5.322;2022-12-08T08:24:39;23.53;;;17.97;;
21215;SDS011;10765;50.954;5.322;2022-12-08T08:27:06;23.27;;;17.93;;
21215;SDS011;10765;50.954;5.322;2022-12-08T08:29:34;21.63;;;16.53;;
21215;SDS011;10765;50.954;5.322;2022-12-08T08:32:01;23.93;;;17.37;;
21215;SDS011;10765;50.954;5.322;2022-12-08T08:34:28;25.20;;;18.03;;
21215;SDS011;10765;50.954;5.322;2022-12-08T08:36:55;23.07;;;17.10;;
21215;SDS011;10765;50.954;5.322;2022-12-08T08:39:22;24.13;;;17.53;;
21215;SDS011;10765;50.954;5.322;2022-12-08T08:41:49;22.57;;;16.50;;
21215;SDS011;10765;50.954;5.322;2022-12-08T08:44:16;24.17;;;17.70;;
21215;SDS011;10765;50.954;5.322;2022-12-08T08:46:44;25.33;;;17.63;;
21215;SDS011;10765;50.954;5.322;2022-12-08T08:49:11;24.13;;;17.27;;
21215;SDS011;10765;50.954;5.322;2022-12-08T08:51:38;22.90;;;15.73;;
21215;SDS011;10765;50.954;5.322;2022-12-08T08:54:05;21.70;;;15.07;;
21215;SDS011;10765;50.954;5.322;2022-12-08T08:56:32;20.60;;;14.63;;
21215;SDS011;10765;50.954;5.322;2022-12-08T08:58:59;19.57;;;14.93;;
21215;SDS011;10765;50.954;5.322;2022-12-08T09:01:27;22.27;;;14.87;;
21215;SDS011;10765;50.954;5.322;2022-12-08T09:03:56;20.30;;;14.80;;
21215;SDS011;10765;50.954;5.322;2022-12-08T09:06:23;18.70;;;14.03;;
21215;SDS011;10765;50.954;5.322;2022-12-08T09:08:52;17.83;;;14.17;;
21215;SDS011;10765;50.954;5.322;2022-12-08T09:11:19;20.47;;;14.27;;
21215;SDS011;10765;50.954;5.322;2022-12-08T09:13:47;17.10;;;13.40;;
21215;SDS011;10765;50.954;5.322;2022-12-08T09:16:14;19.30;;;13.10;;
21215;SDS011;10765;50.954;5.322;2022-12-08T09:18:42;19.57;;;11.90;;
21215;SDS011;10765;50.954;5.322;2022-12-08T09:21:11;18.87;;;13.07;;
21215;SDS011;10765;50.954;5.322;2022-12-08T09:23:40;17.17;;;13.00;;
21215;SDS011;10765;50.954;5.322;2022-12-08T09:26:08;18.57;;;12.60;;
21215;SDS011;10765;50.954;5.322;2022-12-08T09:28:35;17.60;;;12.93;;
21215;SDS011;10765;50.954;5.322;2022-12-08T09:31:02;19.90;;;13.50;;
21215;SDS011;10765;50.954;5.322;2022-12-08T09:33:29;20.40;;;13.60;;
21215;SDS011;10765;50.954;5.322;2022-12-08T09:36:00;16.73;;;11.93;;
21215;SDS011;10765;50.954;5.322;2022-12-08T09:38:28;17.83;;;12.20;;
21215;SDS011;10765;50.954;5.322;2022-12-08T09:40:55;16.70;;;12.13;;
21215;SDS011;10765;50.954;5.322;2022-12-08T09:43:38;16.60;;;11.87;;
21215;SDS011;10765;50.954;5.322;2022-12-08T09:46:15;16.77;;;12.23;;
21215;SDS011;10765;50.954;5.322;2022-12-08T09:48:44;16.67;;;12.23;;
21215;SDS011;10765;50.954;5.322;2022-12-08T09:51:15;18.37;;;12.30;;
21215;SDS011;10765;50.954;5.322;2022-12-08T09:53:44;18.57;;;12.20;;
21215;SDS011;10765;50.954;5.322;2022-12-08T09:56:16;18.30;;;12.83;;
21215;SDS011;10765;50.954;5.322;2022-12-08T09:58:48;16.07;;;12.03;;
21215;SDS011;10765;50.954;5.322;2022-12-08T10:01:17;18.63;;;13.17;;
21215;SDS011;10765;50.954;5.322;2022-12-08T10:03:45;19.07;;;13.63;;
21215;SDS011;10765;50.954;5.322;2022-12-08T10:06:16;15.87;;;11.77;;
21215;SDS011;10765;50.954;5.322;2022-12-08T10:08:50;16.20;;;11.80;;
21215;SDS011;10765;50.954;5.322;2022-12-08T10:11:25;19.20;;;12.30;;
21215;SDS011;10765;50.954;5.322;2022-12-08T10:13:57;16.47;;;12.83;;
21215;SDS011;10765;50.954;5.322;2022-12-08T10:16:39;19.47;;;15.27;;
21215;SDS011;10765;50.954;5.322;2022-12-08T10:19:10;33.13;;;27.57;;
21215;SDS011;10765;50.954;5.322;2022-12-08T10:21:39;31.10;;;22.63;;
21215;SDS011;10765;50.954;5.322;2022-12-08T10:24:10;25.87;;;18.80;;
21215;SDS011;10765;50.954;5.322;2022-12-08T10:26:43;16.17;;;13.37;;
21215;SDS011;10765;50.954;5.322;2022-12-08T10:29:11;17.97;;;13.77;;
21215;SDS011;10765;50.954;5.322;2022-12-08T10:31:39;17.17;;;14.10;;
21215;SDS011;10765;50.954;5.322;2022-12-08T10:34:12;17.70;;;13.83;;
21215;SDS011;10765;50.954;5.322;2022-12-08T10:36:48;20.40;;;16.03;;
21215;SDS011;10765;50.954;5.322;2022-12-08T10:39:29;17.73;;;15.03;;
21215;SDS011;10765;50.954;5.322;2022-12-08T10:42:08;16.33;;;13.63;;
21215;SDS011;10765;50.954;5.322;2022-12-08T10:44:51;20.47;;;13.87;;
21215;SDS011;10765;50.954;5.322;2022-12-08T10:47:21;17.93;;;14.07;;
21215;SDS011;10765;50.954;5.322;2022-12-08T10:50:04;19.17;;;14.70;;
21215;SDS011;10765;50.954;5.322;2022-12-08T10:52:36;21.13;;;14.53;;
21215;SDS011;10765;50.954;5.322;2022-12-08T10:55:11;19.33;;;14.93;;
21215;SDS011;10765;50.954;5.322;2022-12-08T10:57:39;23.10;;;15.27;;
21215;SDS011;10765;50.954;5.322;2022-12-08T11:00:11;18.63;;;15.17;;
21215;SDS011;10765;50.954;5.322;2022-12-08T11:02:48;21.17;;;15.50;;
21215;SDS011;10765;50.954;5.322;2022-12-08T11:05:18;18.70;;;15.27;;
21215;SDS011;10765;50.954;5.322;2022-12-08T11:07:46;21.13;;;15.77;;
21215;SDS011;10765;50.954;5.322;2022-12-08T11:10:18;17.70;;;15.03;;
21215;SDS011;10765;50.954;5.322;2022-12-08T11:12:50;19.23;;;15.43;;
21215;SDS011;10765;50.954;5.322;2022-12-08T11:15:18;20.30;;;14.60;;
21215;SDS011;10765;50.954;5.322;2022-12-08T11:17:45;20.20;;;14.77;;
21215;SDS011;10765;50.954;5.322;2022-12-08T11:20:27;18.07;;;13.40;;
21215;SDS011;10765;50.954;5.322;2022-12-08T11:23:02;18.03;;;13.63;;
21215;SDS011;10765;50.954;5.322;2022-12-08T11:25:31;16.73;;;12.53;;
21215;SDS011;10765;50.954;5.322;2022-12-08T11:27:58;18.03;;;13.37;;
21215;SDS011;10765;50.954;5.322;2022-12-08T11:30:28;18.83;;;12.80;;
21215;SDS011;10765;50.954;5.322;2022-12-08T11:33:00;17.23;;;12.67;;
21215;SDS011;10765;50.954;5.322;2022-12-08T11:35:32;19.57;;;12.87;;
21215;SDS011;10765;50.954;5.322;2022-12-08T11:38:03;17.70;;;11.67;;
21215;SDS011;10765;50.954;5.322;2022-12-08T11:40:33;20.23;;;12.80;;
21215;SDS011;10765;50.954;5.322;2022-12-08T11:43:04;17.70;;;11.70;;
21215;SDS011;10765;50.954;5.322;2022-12-08T11:45:38;17.07;;;11.23;;
21215;SDS011;10765;50.954;5.322;2022-12-08T11:48:09;17.17;;;12.20;;
21215;SDS011;10765;50.954;5.322;2022-12-08T11:50:41;17.13;;;11.27;;
21215;SDS011;10765;50.954;5.322;2022-12-08T11:53:14;12.87;;;11.23;;
21215;SDS011;10765;50.954;5.322;2022-12-08T11:55:48;15.97;;;11.57;;
21215;SDS011;10765;50.954;5.322;2022-12-08T11:58:20;16.10;;;11.73;;
21215;SDS011;10765;50.954;5.322;2022-12-08T12:00:50;16.37;;;11.57;;
21215;SDS011;10765;50.954;5.322;2022-12-08T12:03:19;16.27;;;11.17;;
21215;SDS011;10765;50.954;5.322;2022-12-08T12:05:57;15.23;;;11.80;;
21215;SDS011;10765;50.954;5.322;2022-12-08T12:08:40;16.03;;;11.00;;
21215;SDS011;10765;50.954;5.322;2022-12-08T12:11:23;13.83;;;10.97;;
21215;SDS011;10765;50.954;5.322;2022-12-08T12:14:37;15.87;;;10.77;;
21215;SDS011;10765;50.954;5.322;2022-12-08T12:17:39;14.87;;;10.13;;
21215;SDS011;10765;50.954;5.322;2022-12-08T12:20:11;14.40;;;11.27;;
21215;SDS011;10765;50.954;5.322;2022-12-08T12:22:41;12.60;;;8.90;;
21215;SDS011;10765;50.954;5.322;2022-12-08T12:25:17;13.37;;;9.93;;
21215;SDS011;10765;50.954;5.322;2022-12-08T12:27:49;14.37;;;10.30;;
21215;SDS011;10765;50.954;5.322;2022-12-08T12:30:19;13.73;;;9.47;;
21215;SDS011;10765;50.954;5.322;2022-12-08T12:32:50;13.60;;;9.73;;
21215;SDS011;10765;50.954;5.322;2022-12-08T12:35:21;11.47;;;9.20;;
21215;SDS011;10765;50.954;5.322;2022-12-08T12:37:56;11.33;;;9.00;;
21215;SDS011;10765;50.954;5.322;2022-12-08T12:40:27;14.43;;;9.97;;
21215;SDS011;10765;50.954;5.322;2022-12-08T12:43:23;12.83;;;8.67;;
21215;SDS011;10765;50.954;5.322;2022-12-08T12:49:46;13.47;;;9.00;;
21215;SDS011;10765;50.954;5.322;2022-12-08T12:55:24;12.73;;;9.30;;
21215;SDS011;10765;50.954;5.322;2022-12-08T12:57:53;14.13;;;8.93;;
21215;SDS011;10765;50.954;5.322;2022-12-08T13:00:23;11.60;;;8.60;;
21215;SDS011;10765;50.954;5.322;2022-12-08T13:02:52;11.50;;;8.57;;
21215;SDS011;10765;50.954;5.322;2022-12-08T13:05:21;12.53;;;7.97;;
21215;SDS011;10765;50.954;5.322;2022-12-08T13:07:52;11.87;;;9.03;;
21215;SDS011;10765;50.954;5.322;2022-12-08T13:10:21;11.53;;;8.03;;
21215;SDS011;10765;50.954;5.322;2022-12-08T13:13:06;12.37;;;8.63;;
21215;SDS011;10765;50.954;5.322;2022-12-08T13:15:48;14.00;;;8.80;;
21215;SDS011;10765;50.954;5.322;2022-12-08T13:18:18;15.00;;;9.03;;
21215;SDS011;10765;50.954;5.322;2022-12-08T13:20:47;11.40;;;8.43;;
21215;SDS011;10765;50.954;5.322;2022-12-08T13:23:26;12.53;;;8.97;;
21215;SDS011;10765;50.954;5.322;2022-12-08T13:26:08;16.13;;;9.30;;
21215;SDS011;10765;50.954;5.322;2022-12-08T13:31:44;13.40;;;9.27;;
21215;SDS011;10765;50.954;5.322;2022-12-08T13:34:13;11.23;;;7.50;;
21215;SDS011;10765;50.954;5.322;2022-12-08T13:36:46;13.03;;;7.80;;
21215;SDS011;10765;50.954;5.322;2022-12-08T13:39:19;11.87;;;7.43;;
21215;SDS011;10765;50.954;5.322;2022-12-08T13:41:52;11.17;;;7.53;;
21215;SDS011;10765;50.954;5.322;2022-12-08T13:44:25;11.30;;;7.53;;
21215;SDS011;10765;50.954;5.322;2022-12-08T13:46:58;10.57;;;7.53;;
21215;SDS011;10765;50.954;5.322;2022-12-08T13:49:27;12.57;;;7.60;;
21215;SDS011;10765;50.954;5.322;2022-12-08T13:51:59;11.20;;;7.60;;
21215;SDS011;10765;50.954;5.322;2022-12-08T13:54:28;9.80;;;7.53;;
21215;SDS011;10765;50.954;5.322;2022-12-08T13:56:58;9.90;;;7.43;;
21215;SDS011;10765;50.954;5.322;2022-12-08T13:59:27;12.13;;;7.83;;
21215;SDS011;10765;50.954;5.322;2022-12-08T14:01:56;8.67;;;7.00;;
21215;SDS011;10765;50.954;5.322;2022-12-08T14:04:27;10.87;;;7.47;;
21215;SDS011;10765;50.954;5.322;2022-12-08T14:06:54;11.77;;;7.63;;
21215;SDS011;10765;50.954;5.322;2022-12-08T14:09:26;13.00;;;7.87;;
21215;SDS011;10765;50.954;5.322;2022-12-08T14:11:59;13.20;;;8.40;;
21215;SDS011;10765;50.954;5.322;2022-12-08T14:14:29;11.17;;;7.63;;
21215;SDS011;10765;50.954;5.322;2022-12-08T14:17:01;15.60;;;7.93;;
21215;SDS011;10765;50.954;5.322;2022-12-08T14:19:30;11.13;;;8.07;;
21215;SDS011;10765;50.954;5.322;2022-12-08T14:21:58;11.67;;;8.27;;
21215;SDS011;10765;50.954;5.322;2022-12-08T14:24:27;11.57;;;7.93;;
21215;SDS011;10765;50.954;5.322;2022-12-08T14:26:55;11.37;;;8.40;;
21215;SDS011;10765;50.954;5.322;2022-12-08T14:29:38;10.67;;;8.30;;
21215;SDS011;10765;50.954;5.322;2022-12-08T14:32:22;11.03;;;7.80;;
21215;SDS011;10765;50.954;5.322;2022-12-08T14:34:53;12.67;;;8.50;;
21215;SDS011;10765;50.954;5.322;2022-12-08T14:37:21;11.10;;;8.50;;
21215;SDS011;10765;50.954;5.322;2022-12-08T14:39:51;10.20;;;8.43;;
21215;SDS011;10765;50.954;5.322;2022-12-08T14:42:20;11.60;;;8.80;;
21215;SDS011;10765;50.954;5.322;2022-12-08T14:44:59;12.03;;;8.30;;
21215;SDS011;10765;50.954;5.322;2022-12-08T14:47:31;10.20;;;7.67;;
21215;SDS011;10765;50.954;5.322;2022-12-08T14:49:59;13.00;;;8.47;;
21215;SDS011;10765;50.954;5.322;2022-12-08T14:52:27;9.93;;;8.33;;
21215;SDS011;10765;50.954;5.322;2022-12-08T14:54:55;13.67;;;8.23;;
21215;SDS011;10765;50.954;5.322;2022-12-08T14:57:26;13.03;;;7.90;;
21215;SDS011;10765;50.954;5.322;2022-12-08T14:59:56;10.47;;;8.27;;